Maxeyville, Colorado
Current Conditions -  °F | °C
As of 6:25 AM on Sunday 23 Nov 2014 (Local Time) from KRCV Reporting Station
Scattered Clouds Scattered Clouds  
Wind Chill: 20°   Ceiling: Unl
Heat Index: 28°   Visibility: 10mi
Dew Point: 19°   Wind: 7mph
Humidity: 70%   Direction: 240°WSW
Pressure: 29.72"   Gusts: NA
Location:  37.5196°N, 106.176°W
Report Text: KRCV 231325Z AUTO 24006KT 10SM SCT110 M02/M07 A2972 RMK AO2 T10241072
Loading
Personal Weather Stations






























Interactive Weather Map New forecast layout! Learn more

10-Day Weather Forecast

Advertisements
Track Severe Weather on mobile